createdAt,value
2018-07-23T00:02:20.536Z,22.00
2018-07-23T00:04:48.814Z,22.10
2018-07-23T00:07:17.053Z,22.20
2018-07-23T00:09:45.293Z,22.20
2018-07-23T00:12:13.565Z,22.20
2018-07-23T00:14:41.783Z,22.10
2018-07-23T00:17:10.100Z,22.20
2018-07-23T00:19:38.429Z,22.10
2018-07-23T00:22:07.045Z,22.20
2018-07-23T00:24:35.269Z,22.10
2018-07-23T00:27:03.496Z,22.10
2018-07-23T00:29:31.744Z,22.10
2018-07-23T00:31:59.974Z,22.20
2018-07-23T00:34:28.258Z,22.10
2018-07-23T00:36:56.503Z,22.10
2018-07-23T00:39:24.839Z,22.10
2018-07-23T00:41:53.437Z,22.00
2018-07-23T00:44:21.784Z,21.90
2018-07-23T00:46:50.004Z,21.80
2018-07-23T00:49:18.746Z,21.80
2018-07-23T00:51:46.966Z,21.70
2018-07-23T00:54:15.220Z,21.80
2018-07-23T00:56:43.481Z,21.80
2018-07-23T00:59:11.899Z,21.70
2018-07-23T01:01:40.108Z,21.70
2018-07-23T01:04:08.334Z,21.70
2018-07-23T01:06:36.572Z,21.70
2018-07-23T01:09:07.322Z,21.70
2018-07-23T01:11:35.574Z,21.70
2018-07-23T01:14:03.836Z,21.70
2018-07-23T01:16:32.105Z,21.60
2018-07-23T01:19:00.352Z,21.60
2018-07-23T01:21:28.639Z,21.50
2018-07-23T01:23:56.868Z,21.20
2018-07-23T01:26:25.155Z,20.70
2018-07-23T01:28:53.521Z,20.60
2018-07-23T01:31:21.744Z,20.60
2018-07-23T01:33:50.029Z,20.70
2018-07-23T01:36:18.300Z,20.90
2018-07-23T01:38:46.518Z,21.00
2018-07-23T01:41:14.752Z,21.10
2018-07-23T01:43:43.007Z,21.00
2018-07-23T01:46:11.225Z,20.90
2018-07-23T01:48:39.479Z,20.80
2018-07-23T01:51:07.763Z,20.90
2018-07-23T01:53:36.669Z,20.90
2018-07-23T01:56:05.015Z,20.90
2018-07-23T01:58:33.216Z,20.90
2018-07-23T02:01:07.086Z,21.00
2018-07-23T02:03:35.298Z,21.10
2018-07-23T02:06:03.584Z,21.10
2018-07-23T02:08:31.826Z,21.10
2018-07-23T02:11:00.060Z,20.90
2018-07-23T02:13:31.153Z,20.60
2018-07-23T02:15:59.389Z,20.60
2018-07-23T02:18:27.651Z,20.50
2018-07-23T02:20:55.909Z,20.20
2018-07-23T02:23:24.188Z,20.20
2018-07-23T02:25:52.420Z,20.20
2018-07-23T02:28:20.698Z,20.30
2018-07-23T02:30:48.920Z,20.40
2018-07-23T02:33:17.169Z,20.40
2018-07-23T02:35:45.409Z,20.40
2018-07-23T02:38:13.709Z,20.50
2018-07-23T02:40:41.933Z,20.60
2018-07-23T02:43:10.170Z,20.50
2018-07-23T02:45:38.404Z,20.30
2018-07-23T02:48:06.637Z,20.30
2018-07-23T02:50:34.865Z,20.40
2018-07-23T02:53:03.159Z,20.40
2018-07-23T02:55:31.426Z,20.50
2018-07-23T02:58:00.497Z,20.60
2018-07-23T03:00:28.835Z,20.60
2018-07-23T03:02:57.086Z,20.60
2018-07-23T03:05:25.338Z,20.60
2018-07-23T03:07:53.614Z,20.50
2018-07-23T03:10:21.871Z,20.30
2018-07-23T03:12:50.125Z,20.30
2018-07-23T03:15:18.443Z,20.40
2018-07-23T03:17:46.677Z,20.30
2018-07-23T03:20:14.941Z,20.30
2018-07-23T03:22:43.207Z,20.30
2018-07-23T03:25:11.434Z,20.20
2018-07-23T03:27:39.669Z,20.10
2018-07-23T03:30:07.928Z,20.20
2018-07-23T03:32:36.520Z,20.20
2018-07-23T03:35:04.893Z,20.10
2018-07-23T03:37:33.244Z,20.10
2018-07-23T03:40:01.504Z,20.00
2018-07-23T03:42:29.769Z,20.00
2018-07-23T03:44:58.530Z,19.90
2018-07-23T03:47:26.772Z,19.90
2018-07-23T03:49:54.999Z,20.00
2018-07-23T03:52:23.286Z,20.10
2018-07-23T03:54:51.528Z,20.20
2018-07-23T03:57:19.777Z,20.20
2018-07-23T03:59:48.004Z,20.20
2018-07-23T04:02:16.255Z,20.20
2018-07-23T04:04:44.558Z,20.20
2018-07-23T04:07:12.817Z,20.20
2018-07-23T04:09:41.061Z,20.10
2018-07-23T04:12:09.304Z,20.10
2018-07-23T04:14:37.542Z,20.00
2018-07-23T04:17:05.883Z,19.90
2018-07-23T04:19:34.129Z,19.80
2018-07-23T04:22:02.376Z,19.90
2018-07-23T04:24:30.633Z,19.90
2018-07-23T04:26:58.859Z,19.70
2018-07-23T04:29:27.221Z,19.50
2018-07-23T04:31:55.456Z,19.50
2018-07-23T04:34:23.712Z,19.50
2018-07-23T04:36:51.927Z,19.70
2018-07-23T04:39:20.183Z,19.80
2018-07-23T04:41:48.422Z,20.00
2018-07-23T04:44:16.665Z,20.00
2018-07-23T04:46:44.920Z,20.00
2018-07-23T04:49:13.238Z,20.10
2018-07-23T04:51:41.460Z,20.20
2018-07-23T04:54:09.706Z,20.00
2018-07-23T04:56:37.972Z,19.80
2018-07-23T04:59:06.275Z,19.60
2018-07-23T05:01:34.559Z,19.50
2018-07-23T05:04:02.855Z,19.50
2018-07-23T05:06:31.125Z,19.50
2018-07-23T05:08:59.372Z,19.50
2018-07-23T05:11:27.601Z,19.60
2018-07-23T05:13:55.857Z,19.70
2018-07-23T05:16:24.086Z,19.70
2018-07-23T05:18:52.319Z,19.60
2018-07-23T05:21:20.602Z,19.70
2018-07-23T05:23:48.869Z,19.80
2018-07-23T05:26:17.106Z,19.90
2018-07-23T05:28:45.340Z,19.90
2018-07-23T05:31:13.600Z,20.10
2018-07-23T05:33:41.841Z,20.50
2018-07-23T05:36:10.114Z,21.00
2018-07-23T05:38:38.512Z,21.30
2018-07-23T05:41:06.762Z,21.30
2018-07-23T05:43:35.060Z,21.60
2018-07-23T05:46:03.341Z,21.70
2018-07-23T05:48:31.916Z,21.70
2018-07-23T05:51:00.193Z,23.00
2018-07-23T05:53:28.600Z,25.40
2018-07-23T05:55:56.828Z,27.30
2018-07-23T05:58:25.076Z,29.10
2018-07-23T06:00:53.343Z,30.40
2018-07-23T06:03:21.601Z,31.00
2018-07-23T06:05:49.858Z,32.30
2018-07-23T06:08:18.158Z,32.50
2018-07-23T06:10:46.482Z,32.80
2018-07-23T06:13:14.863Z,33.50
2018-07-23T06:15:43.090Z,34.00
2018-07-23T06:18:17.852Z,34.10
2018-07-23T06:20:46.128Z,34.50
2018-07-23T06:23:14.682Z,34.40
2018-07-23T06:25:42.964Z,34.10
2018-07-23T06:28:11.378Z,33.90
2018-07-23T06:30:39.599Z,34.20
2018-07-23T06:33:07.860Z,34.30
2018-07-23T06:35:36.105Z,34.30
2018-07-23T06:38:04.699Z,34.20
2018-07-23T06:40:32.964Z,34.10
2018-07-23T06:43:01.246Z,33.80
2018-07-23T06:45:29.510Z,33.50
2018-07-23T06:47:57.971Z,33.40
2018-07-23T06:50:26.289Z,33.20
2018-07-23T06:52:54.560Z,33.70
2018-07-23T06:55:22.809Z,34.00
2018-07-23T06:57:51.040Z,34.20
2018-07-23T07:00:19.283Z,34.60
2018-07-23T07:02:47.541Z,34.60
2018-07-23T07:05:15.921Z,34.90
2018-07-23T07:07:44.213Z,34.60
2018-07-23T07:10:12.521Z,34.60
2018-07-23T07:12:40.752Z,34.00
2018-07-23T07:15:09.366Z,33.40
2018-07-23T07:17:37.611Z,33.20
2018-07-23T07:20:05.896Z,34.00
2018-07-23T07:22:34.153Z,34.10
2018-07-23T07:25:02.411Z,33.60
2018-07-23T07:27:30.645Z,33.50
2018-07-23T07:29:59.113Z,33.20
2018-07-23T07:32:27.381Z,33.40
2018-07-23T07:34:55.604Z,33.80
2018-07-23T07:37:23.930Z,34.10
2018-07-23T07:39:52.170Z,34.60
2018-07-23T07:42:20.421Z,33.70
2018-07-23T07:44:48.745Z,33.30
2018-07-23T07:47:17.037Z,33.50
2018-07-23T07:49:45.308Z,33.50
2018-07-23T07:52:13.544Z,33.10
2018-07-23T07:54:41.848Z,33.20
2018-07-23T07:57:10.158Z,33.30
2018-07-23T07:59:38.413Z,33.40
2018-07-23T08:02:06.830Z,32.90
2018-07-23T08:04:35.118Z,33.20
2018-07-23T08:07:03.439Z,33.20
2018-07-23T08:09:31.669Z,32.70
2018-07-23T08:12:00.002Z,33.70
2018-07-23T08:14:28.244Z,34.10
2018-07-23T08:16:56.492Z,34.80
2018-07-23T08:19:24.767Z,35.30
2018-07-23T08:21:53.046Z,35.50
2018-07-23T08:24:21.607Z,35.40
2018-07-23T08:26:49.885Z,33.00
2018-07-23T08:29:18.136Z,32.20
2018-07-23T08:31:46.506Z,31.10
2018-07-23T08:34:14.756Z,32.30
2018-07-23T08:36:43.065Z,33.40
2018-07-23T08:39:12.165Z,34.30
2018-07-23T08:41:40.421Z,34.80
2018-07-23T08:44:09.099Z,34.90
2018-07-23T08:46:37.543Z,34.80
2018-07-23T08:49:05.818Z,34.90
2018-07-23T08:51:34.072Z,35.20
2018-07-23T08:54:02.378Z,35.50
2018-07-23T08:56:30.638Z,35.60
2018-07-23T08:58:58.958Z,35.10
2018-07-23T09:01:27.215Z,34.60
2018-07-23T09:03:55.934Z,35.10
2018-07-23T09:06:24.298Z,35.50
2018-07-23T09:08:58.936Z,35.00
2018-07-23T09:11:27.222Z,34.90
2018-07-23T09:13:55.709Z,35.30
2018-07-23T09:16:23.951Z,35.30
2018-07-23T09:18:52.199Z,35.60
2018-07-23T09:21:20.476Z,36.30
2018-07-23T09:23:48.823Z,35.70
2018-07-23T09:26:17.019Z,35.40
2018-07-23T09:28:45.389Z,33.50
2018-07-23T09:31:13.631Z,33.70
2018-07-23T09:33:41.873Z,33.70
2018-07-23T09:36:10.128Z,33.10
2018-07-23T09:38:38.359Z,33.70
2018-07-23T09:41:07.636Z,34.70
2018-07-23T09:43:35.881Z,32.40
2018-07-23T09:46:04.187Z,31.10
2018-07-23T09:48:32.441Z,29.80
2018-07-23T09:51:00.716Z,30.50
2018-07-23T09:53:28.974Z,31.50
2018-07-23T09:55:57.217Z,32.50
2018-07-23T09:58:25.501Z,33.50
2018-07-23T10:00:56.954Z,34.10
2018-07-23T10:03:25.251Z,34.30
2018-07-23T10:05:53.459Z,34.20
2018-07-23T10:08:21.724Z,34.30
2018-07-23T10:10:49.965Z,34.60
2018-07-23T10:13:18.206Z,35.10
2018-07-23T10:15:46.462Z,35.30
2018-07-23T10:18:15.443Z,35.30
2018-07-23T10:20:43.745Z,35.60
2018-07-23T10:23:12.035Z,35.20
2018-07-23T10:25:40.281Z,34.10
2018-07-23T10:28:08.524Z,32.80
2018-07-23T10:30:36.781Z,31.20
2018-07-23T10:33:05.047Z,30.00
2018-07-23T10:35:33.293Z,29.80
2018-07-23T10:38:01.593Z,30.40
2018-07-23T10:40:29.821Z,30.60
2018-07-23T10:42:58.053Z,30.30
2018-07-23T10:45:26.330Z,30.70
2018-07-23T10:47:54.578Z,29.60
2018-07-23T10:50:22.842Z,29.30
2018-07-23T10:52:51.116Z,29.20
2018-07-23T10:55:19.357Z,29.10
2018-07-23T10:57:47.641Z,28.70
2018-07-23T11:00:15.885Z,28.70
2018-07-23T11:02:44.146Z,29.00
2018-07-23T11:05:12.405Z,29.40
2018-07-23T11:07:40.890Z,29.80
2018-07-23T11:10:09.466Z,29.50
2018-07-23T11:12:38.637Z,29.30
2018-07-23T11:15:07.665Z,28.80
2018-07-23T11:17:36.750Z,28.60
2018-07-23T11:20:06.226Z,28.60
2018-07-23T11:22:34.567Z,28.70
2018-07-23T11:25:38.220Z,28.70
2018-07-23T11:27:31.127Z,28.60
2018-07-23T11:29:59.447Z,28.10
2018-07-23T11:32:27.732Z,28.10
2018-07-23T11:34:56.015Z,28.00
2018-07-23T11:37:24.366Z,28.20
2018-07-23T11:42:20.752Z,28.70
2018-07-23T11:44:49.556Z,28.80
2018-07-23T11:47:17.815Z,28.60
2018-07-23T11:49:46.072Z,28.90
2018-07-23T11:52:14.773Z,29.10
2018-07-23T11:54:42.989Z,29.10
2018-07-23T11:57:11.359Z,28.80
2018-07-23T11:59:39.609Z,28.60
2018-07-23T12:02:08.561Z,28.30
2018-07-23T12:04:36.973Z,28.40
2018-07-23T12:07:06.109Z,28.60
2018-07-23T12:09:34.340Z,28.80
2018-07-23T12:12:02.561Z,28.70
2018-07-23T12:14:30.802Z,28.50
2018-07-23T12:16:59.072Z,28.40
2018-07-23T12:19:27.321Z,28.60
2018-07-23T12:21:55.580Z,28.80
2018-07-23T12:24:23.855Z,28.80
2018-07-23T12:26:55.181Z,28.80
2018-07-23T12:29:23.488Z,29.00
2018-07-23T12:31:51.769Z,29.40
2018-07-23T12:34:20.021Z,29.50
2018-07-23T12:36:48.257Z,29.40
2018-07-23T12:39:16.512Z,29.10
2018-07-23T12:41:44.761Z,28.80
2018-07-23T12:44:12.997Z,28.60
2018-07-23T12:46:41.257Z,28.70
2018-07-23T12:49:09.508Z,28.90
2018-07-23T12:51:37.784Z,29.20
2018-07-23T12:54:06.068Z,29.00
2018-07-23T12:56:34.298Z,28.80
2018-07-23T12:59:02.617Z,28.90
2018-07-23T13:01:30.849Z,28.80
2018-07-23T13:03:59.108Z,28.80
2018-07-23T13:06:27.368Z,29.00
2018-07-23T13:08:55.600Z,29.20
2018-07-23T13:11:23.879Z,29.20
2018-07-23T13:13:52.140Z,29.00
2018-07-23T13:16:20.449Z,28.80
2018-07-23T13:18:48.724Z,28.70
2018-07-23T13:21:17.014Z,28.70
2018-07-23T13:23:45.302Z,28.70
2018-07-23T13:26:13.583Z,28.60
2018-07-23T13:28:41.910Z,28.70
2018-07-23T13:31:10.177Z,28.80
2018-07-23T13:33:38.462Z,29.00
2018-07-23T13:36:06.735Z,28.90
2018-07-23T13:38:34.988Z,28.90
2018-07-23T13:41:03.288Z,29.00
2018-07-23T13:43:31.721Z,29.30
2018-07-23T13:45:59.951Z,29.50
2018-07-23T13:48:28.259Z,29.60
2018-07-23T13:50:56.496Z,29.10
2018-07-23T13:53:24.812Z,29.00
2018-07-23T13:55:53.048Z,29.00
2018-07-23T13:58:21.333Z,29.10
2018-07-23T14:00:49.614Z,29.10
2018-07-23T14:03:17.844Z,29.50
2018-07-23T14:05:46.125Z,29.30
2018-07-23T14:08:14.400Z,29.20
2018-07-23T14:10:42.651Z,29.00
2018-07-23T14:13:10.904Z,28.80
2018-07-23T14:15:39.135Z,29.00
2018-07-23T14:18:07.376Z,29.50
2018-07-23T14:20:35.936Z,29.60
2018-07-23T14:23:04.528Z,29.80
2018-07-23T14:25:32.772Z,29.70
2018-07-23T14:28:01.048Z,30.00
2018-07-23T14:30:29.309Z,30.30
2018-07-23T14:32:57.634Z,30.20
2018-07-23T14:35:25.959Z,30.00
2018-07-23T14:37:54.199Z,30.00
2018-07-23T14:40:22.513Z,30.30
2018-07-23T14:42:50.774Z,30.70
2018-07-23T14:45:19.016Z,30.40
2018-07-23T14:47:47.261Z,30.40
2018-07-23T14:50:15.547Z,30.40
2018-07-23T14:52:43.794Z,29.90
2018-07-23T14:55:12.065Z,29.80
2018-07-23T14:57:40.325Z,30.20
2018-07-23T15:00:08.553Z,30.60
2018-07-23T15:02:36.782Z,31.00
2018-07-23T15:05:05.152Z,31.40
2018-07-23T15:07:33.472Z,31.70
2018-07-23T15:10:01.694Z,31.80
2018-07-23T15:12:30.025Z,32.10
2018-07-23T15:14:58.276Z,32.10
2018-07-23T15:17:26.590Z,32.20
2018-07-23T15:19:54.820Z,32.40
2018-07-23T15:22:23.126Z,32.40
2018-07-23T15:24:51.370Z,32.60
2018-07-23T15:27:19.696Z,32.70
2018-07-23T15:29:47.940Z,32.80
2018-07-23T15:32:16.187Z,32.80
2018-07-23T15:34:44.499Z,32.50
2018-07-23T15:37:12.773Z,32.00
2018-07-23T15:39:40.998Z,31.90
2018-07-23T15:42:09.230Z,31.80
2018-07-23T15:44:37.901Z,31.60
2018-07-23T15:47:05.874Z,31.20
2018-07-23T15:49:34.602Z,31.20
2018-07-23T15:52:03.014Z,31.50
2018-07-23T15:54:31.204Z,31.70
2018-07-23T15:56:59.794Z,31.80
2018-07-23T15:59:28.028Z,32.00
2018-07-23T16:01:56.358Z,31.30
2018-07-23T16:04:24.595Z,30.80
2018-07-23T16:06:52.832Z,30.90
2018-07-23T16:09:21.111Z,31.10
2018-07-23T16:11:49.382Z,31.20
2018-07-23T16:14:17.738Z,30.90
2018-07-23T16:16:45.970Z,30.80
2018-07-23T16:19:14.304Z,31.20
2018-07-23T16:21:42.544Z,31.40
2018-07-23T16:24:10.797Z,31.40
2018-07-23T16:26:39.019Z,31.30
2018-07-23T16:29:07.265Z,31.00
2018-07-23T16:31:35.495Z,31.20
2018-07-23T16:34:03.823Z,31.50
2018-07-23T16:36:32.219Z,31.60
2018-07-23T16:39:00.475Z,31.70
2018-07-23T16:41:29.655Z,31.80
2018-07-23T16:43:57.890Z,31.70
2018-07-23T16:46:26.145Z,31.50
2018-07-23T16:48:54.387Z,31.50
2018-07-23T16:51:22.632Z,31.40
2018-07-23T16:53:50.862Z,31.30
2018-07-23T16:56:19.124Z,30.90
2018-07-23T16:58:47.526Z,30.90
2018-07-23T17:01:15.777Z,31.10
2018-07-23T17:03:44.035Z,31.10
2018-07-23T17:06:12.284Z,30.80
2018-07-23T17:08:40.644Z,30.50
2018-07-23T17:11:08.916Z,30.60
2018-07-23T17:13:37.151Z,30.90
2018-07-23T17:16:05.465Z,31.20
2018-07-23T17:18:33.701Z,31.50
2018-07-23T17:21:02.040Z,31.60
2018-07-23T17:23:30.588Z,31.70
2018-07-23T17:25:58.829Z,31.60
2018-07-23T17:28:27.103Z,31.70
2018-07-23T17:30:55.528Z,31.70
2018-07-23T17:33:23.791Z,31.50
2018-07-23T17:35:52.075Z,31.20
2018-07-23T17:38:20.332Z,30.60
2018-07-23T17:40:49.080Z,30.20
2018-07-23T17:43:17.328Z,30.20
2018-07-23T17:45:45.608Z,29.80
2018-07-23T17:48:14.207Z,29.80
2018-07-23T17:50:42.515Z,29.90
2018-07-23T17:53:10.770Z,30.10
2018-07-23T17:55:39.038Z,30.00
2018-07-23T17:58:07.647Z,29.90
2018-07-23T18:00:35.969Z,30.10
2018-07-23T18:03:04.244Z,30.10
2018-07-23T18:08:07.368Z,29.60
2018-07-23T18:10:35.650Z,29.30
2018-07-23T18:13:04.021Z,29.30
2018-07-23T18:15:32.311Z,29.20
2018-07-23T18:18:00.614Z,29.30
2018-07-23T18:20:28.926Z,29.30
2018-07-23T18:22:57.253Z,29.30
2018-07-23T18:25:25.616Z,29.00
2018-07-23T18:27:53.940Z,28.90
2018-07-23T18:30:22.218Z,29.10
2018-07-23T18:32:50.573Z,29.10
2018-07-23T18:38:11.810Z,29.00
2018-07-23T18:40:40.608Z,28.80
2018-07-23T18:43:08.936Z,28.50
2018-07-23T18:45:37.215Z,28.40
2018-07-23T18:48:15.317Z,28.30
2018-07-23T18:50:43.666Z,28.10
2018-07-23T18:53:21.017Z,28.00
2018-07-23T18:55:49.457Z,28.00
2018-07-23T18:58:17.817Z,27.80
2018-07-23T19:00:46.163Z,27.70
2018-07-23T19:03:14.578Z,27.60
2018-07-23T19:05:43.096Z,27.50
2018-07-23T19:08:11.432Z,27.50
2018-07-23T19:10:39.738Z,27.40
2018-07-23T19:13:08.086Z,27.40
2018-07-23T19:15:36.433Z,27.40
2018-07-23T19:18:04.929Z,27.40
2018-07-23T19:20:33.278Z,27.30
2018-07-23T19:23:01.510Z,27.20
2018-07-23T19:25:29.796Z,27.00
2018-07-23T19:27:58.146Z,27.00
2018-07-23T19:30:26.491Z,27.00
2018-07-23T19:32:54.807Z,26.90
2018-07-23T19:35:23.066Z,26.90
2018-07-23T19:40:19.405Z,26.80
2018-07-23T19:42:47.644Z,26.80
2018-07-23T19:45:15.956Z,26.80
2018-07-23T19:47:44.447Z,26.70
2018-07-23T19:50:12.742Z,26.70
2018-07-23T19:52:41.074Z,26.70
2018-07-23T19:55:09.430Z,26.70
2018-07-23T19:57:37.771Z,26.40
2018-07-23T20:00:06.111Z,26.40
2018-07-23T20:02:34.404Z,26.20
2018-07-23T20:05:02.762Z,26.10
2018-07-23T20:07:30.990Z,26.10
2018-07-23T20:09:59.269Z,26.00
2018-07-23T20:12:27.545Z,26.10
2018-07-23T20:14:55.793Z,26.10
2018-07-23T20:17:24.048Z,26.20
2018-07-23T20:19:52.277Z,26.00
2018-07-23T20:22:20.520Z,26.00
2018-07-23T20:24:48.744Z,26.00
2018-07-23T20:27:17.105Z,26.10
2018-07-23T20:29:45.530Z,26.10
2018-07-23T20:32:13.756Z,26.20
2018-07-23T20:34:42.113Z,26.10
2018-07-23T20:37:10.312Z,25.90
2018-07-23T20:39:38.566Z,26.00
2018-07-23T20:42:06.845Z,26.00
2018-07-23T20:44:35.175Z,26.00
2018-07-23T20:47:03.465Z,26.00
2018-07-23T20:49:31.761Z,25.80
2018-07-23T20:52:00.021Z,25.70
2018-07-23T20:54:28.319Z,25.60
2018-07-23T20:56:56.582Z,25.50
2018-07-23T20:59:24.865Z,25.50
2018-07-23T21:01:53.121Z,25.40
2018-07-23T21:04:21.385Z,25.30
2018-07-23T21:09:17.614Z,25.20
2018-07-23T21:11:45.889Z,25.20
2018-07-23T21:14:14.256Z,25.20
2018-07-23T21:16:42.733Z,25.20
2018-07-23T21:19:10.978Z,25.30
2018-07-23T21:21:39.219Z,25.30
2018-07-23T21:24:07.505Z,25.40
2018-07-23T21:26:35.736Z,25.20
2018-07-23T21:29:04.062Z,25.00
2018-07-23T21:31:32.324Z,25.00
2018-07-23T21:34:00.678Z,24.90
2018-07-23T21:36:28.941Z,24.70
2018-07-23T21:38:57.258Z,24.70
2018-07-23T21:41:25.564Z,24.60
2018-07-23T21:43:53.855Z,24.50
2018-07-23T21:46:22.112Z,24.40
2018-07-23T21:48:50.413Z,24.40
2018-07-23T21:51:18.700Z,24.40
2018-07-23T21:53:46.963Z,24.40
2018-07-23T21:56:15.237Z,24.40
2018-07-23T21:58:43.480Z,24.30
2018-07-23T22:01:11.723Z,24.30
2018-07-23T22:03:39.975Z,24.00
2018-07-23T22:06:08.341Z,24.10
2018-07-23T22:08:36.599Z,24.10
2018-07-23T22:11:04.933Z,24.10
2018-07-23T22:13:33.449Z,24.10
2018-07-23T22:16:01.693Z,24.20
2018-07-23T22:18:29.965Z,24.20
2018-07-23T22:20:58.237Z,24.20
2018-07-23T22:23:26.490Z,24.30
2018-07-23T22:25:54.738Z,24.30
2018-07-23T22:28:23.041Z,24.40
2018-07-23T22:30:51.395Z,24.30
2018-07-23T22:33:19.632Z,24.30
2018-07-23T22:35:47.936Z,24.30
2018-07-23T22:38:16.214Z,24.30
2018-07-23T22:40:44.538Z,24.30
2018-07-23T22:43:13.072Z,24.20
2018-07-23T22:45:41.349Z,24.10
2018-07-23T22:48:09.715Z,24.10
2018-07-23T22:50:37.992Z,24.00
2018-07-23T22:53:06.314Z,23.80
2018-07-23T22:55:34.828Z,23.80
2018-07-23T22:58:03.132Z,23.90
2018-07-23T23:00:32.016Z,23.80
2018-07-23T23:03:00.303Z,23.80
2018-07-23T23:05:28.556Z,23.70
2018-07-23T23:07:56.889Z,23.50
2018-07-23T23:10:25.276Z,23.60
2018-07-23T23:12:53.609Z,23.60
2018-07-23T23:15:21.844Z,23.60
2018-07-23T23:17:50.094Z,23.60
2018-07-23T23:20:18.339Z,23.60
2018-07-23T23:22:46.577Z,23.50
2018-07-23T23:25:14.841Z,23.40
2018-07-23T23:27:43.082Z,23.60
2018-07-23T23:30:11.352Z,23.70
2018-07-23T23:32:39.590Z,23.70
2018-07-23T23:35:07.884Z,23.80
2018-07-23T23:37:37.355Z,23.80
2018-07-23T23:40:05.596Z,23.90
2018-07-23T23:42:33.885Z,24.00
2018-07-23T23:45:02.125Z,24.00
2018-07-23T23:47:30.418Z,24.00
2018-07-23T23:49:58.657Z,24.00
2018-07-23T23:52:26.921Z,24.00
2018-07-23T23:54:55.170Z,24.00
2018-07-23T23:57:23.413Z,24.00
2018-07-23T23:59:51.666Z,24.10
